createdAt,value
2022-11-16T00:02:13.931Z,6.26
2022-11-16T00:04:43.210Z,6.28
2022-11-16T00:07:12.046Z,6.30
2022-11-16T00:09:40.905Z,6.31
2022-11-16T00:12:11.329Z,6.34
2022-11-16T00:14:40.109Z,6.33
2022-11-16T00:17:08.971Z,6.32
2022-11-16T00:19:37.780Z,6.32
2022-11-16T00:22:06.534Z,6.33
2022-11-16T00:24:35.668Z,6.35
2022-11-16T00:27:04.384Z,6.37
2022-11-16T00:29:33.095Z,6.40
2022-11-16T00:32:01.824Z,6.41
2022-11-16T00:34:30.512Z,6.41
2022-11-16T00:36:59.359Z,6.42
2022-11-16T00:39:28.181Z,6.42
2022-11-16T00:41:57.130Z,6.43
2022-11-16T00:44:25.820Z,6.44
2022-11-16T00:46:54.562Z,6.45
2022-11-16T00:49:23.336Z,6.48
2022-11-16T00:51:52.067Z,6.50
2022-11-16T00:54:22.471Z,6.52
2022-11-16T00:56:51.272Z,6.53
2022-11-16T00:59:20.106Z,6.56
2022-11-16T01:01:48.924Z,6.59
2022-11-16T01:04:17.725Z,6.62
2022-11-16T01:06:46.666Z,6.64
2022-11-16T01:09:15.583Z,6.66
2022-11-16T01:12:02.655Z,6.67
2022-11-16T01:14:31.362Z,6.69
2022-11-16T01:17:00.515Z,6.69
2022-11-16T01:19:29.759Z,6.68
2022-11-16T01:21:58.999Z,6.69
2022-11-16T01:24:27.876Z,6.69
2022-11-16T01:26:58.318Z,6.70
2022-11-16T01:29:30.149Z,6.72
2022-11-16T01:31:59.271Z,6.74
2022-11-16T01:34:27.999Z,6.76
2022-11-16T01:36:56.719Z,6.78
2022-11-16T01:39:25.513Z,6.79
2022-11-16T01:41:54.358Z,6.80
2022-11-16T01:44:34.818Z,6.80
2022-11-16T01:47:11.191Z,6.81
2022-11-16T01:49:49.043Z,6.83
2022-11-16T01:52:22.704Z,6.84
2022-11-16T01:54:54.466Z,6.86
2022-11-16T01:57:38.471Z,6.88
2022-11-16T02:00:10.257Z,6.91
2022-11-16T02:02:39.189Z,6.92
2022-11-16T02:05:09.734Z,6.94
2022-11-16T02:08:19.062Z,6.95
2022-11-16T02:11:23.239Z,6.97
2022-11-16T02:14:06.644Z,6.99
2022-11-16T02:17:18.433Z,7.01
2022-11-16T02:20:34.179Z,7.03
2022-11-16T02:24:01.731Z,7.06
2022-11-16T02:27:16.629Z,7.06
2022-11-16T02:29:53.409Z,7.08
2022-11-16T02:32:37.776Z,7.09
2022-11-16T02:35:24.656Z,7.11
2022-11-16T02:37:59.935Z,7.13
2022-11-16T02:40:33.391Z,7.15
2022-11-16T02:43:10.071Z,7.17
2022-11-16T02:45:45.699Z,7.20
2022-11-16T02:48:42.612Z,7.24
2022-11-16T02:51:11.898Z,7.27
2022-11-16T02:53:58.261Z,7.30
2022-11-16T02:56:27.382Z,7.33
2022-11-16T02:58:59.357Z,7.36
2022-11-16T03:01:40.045Z,7.36
2022-11-16T03:04:19.013Z,7.39
2022-11-16T03:06:50.356Z,7.42
2022-11-16T03:09:27.311Z,7.45
2022-11-16T03:12:00.773Z,7.46
2022-11-16T03:14:46.927Z,7.48
2022-11-16T03:17:31.641Z,7.50
2022-11-16T03:20:27.041Z,7.51
2022-11-16T03:23:01.362Z,7.52
2022-11-16T03:25:42.246Z,7.53
2022-11-16T03:28:29.270Z,7.54
2022-11-16T03:31:15.420Z,7.54
2022-11-16T03:33:52.442Z,7.54
2022-11-16T03:36:31.152Z,7.55
2022-11-16T03:39:11.146Z,7.54
2022-11-16T03:41:43.666Z,7.55
2022-11-16T03:44:14.494Z,7.53
2022-11-16T03:46:45.408Z,7.51
2022-11-16T03:49:13.780Z,7.49
2022-11-16T03:51:42.178Z,7.47
2022-11-16T03:54:10.546Z,7.44
2022-11-16T03:56:38.862Z,7.42
2022-11-16T03:59:07.218Z,7.38
2022-11-16T04:01:38.218Z,7.36
2022-11-16T04:04:28.680Z,7.34
2022-11-16T04:07:15.334Z,7.31
2022-11-16T04:10:02.052Z,7.26
2022-11-16T04:12:49.155Z,7.19
2022-11-16T04:15:36.480Z,7.14
2022-11-16T04:18:24.181Z,7.10
2022-11-16T04:21:10.969Z,7.04
2022-11-16T04:23:58.098Z,6.97
2022-11-16T04:26:45.071Z,6.91
2022-11-16T04:29:14.162Z,6.84
2022-11-16T04:32:01.036Z,6.79
2022-11-16T04:34:47.903Z,6.73
2022-11-16T04:37:36.710Z,6.68
2022-11-16T04:40:05.929Z,6.63
2022-11-16T04:42:34.253Z,6.60
2022-11-16T04:45:21.143Z,6.58
2022-11-16T04:47:50.548Z,6.55
2022-11-16T04:50:20.254Z,6.52
2022-11-16T04:52:48.686Z,6.50
2022-11-16T04:55:17.212Z,6.47
2022-11-16T04:57:45.947Z,6.45
2022-11-16T05:00:15.208Z,6.42
2022-11-16T05:02:43.513Z,6.40
2022-11-16T05:05:12.967Z,6.38
2022-11-16T05:07:41.449Z,6.36
2022-11-16T05:10:11.177Z,6.32
2022-11-16T05:12:40.072Z,6.31
2022-11-16T05:15:09.526Z,6.30
2022-11-16T05:17:37.884Z,6.30
2022-11-16T05:20:25.746Z,6.29
2022-11-16T05:22:56.403Z,6.28
2022-11-16T05:25:25.400Z,6.26
2022-11-16T05:27:53.953Z,6.24
2022-11-16T05:30:22.418Z,6.23
2022-11-16T05:32:50.854Z,6.23
2022-11-16T05:35:19.209Z,6.24
2022-11-16T05:37:47.491Z,6.24
2022-11-16T05:40:16.043Z,6.25
2022-11-16T05:42:44.386Z,6.24
2022-11-16T05:45:17.170Z,6.25
2022-11-16T05:47:48.195Z,6.25
2022-11-16T05:50:16.581Z,6.24
2022-11-16T05:52:44.907Z,6.26
2022-11-16T05:55:13.293Z,6.27
2022-11-16T05:57:41.665Z,6.27
2022-11-16T06:00:10.934Z,6.29
2022-11-16T06:02:39.292Z,6.30
2022-11-16T06:05:08.299Z,6.31
2022-11-16T06:07:36.827Z,6.32
2022-11-16T06:10:05.915Z,6.33
2022-11-16T06:12:34.191Z,6.34
2022-11-16T06:15:02.622Z,6.36
2022-11-16T06:17:33.834Z,6.37
2022-11-16T06:20:02.694Z,6.38
2022-11-16T06:22:31.023Z,6.38
2022-11-16T06:24:59.349Z,6.40
2022-11-16T06:27:27.692Z,6.41
2022-11-16T06:29:56.077Z,6.41
2022-11-16T06:32:24.455Z,6.41
2022-11-16T06:34:52.823Z,6.42
2022-11-16T06:37:21.099Z,6.43
2022-11-16T06:39:49.357Z,6.45
2022-11-16T06:42:17.694Z,6.47
2022-11-16T06:44:45.975Z,6.50
2022-11-16T06:47:14.353Z,6.53
2022-11-16T06:49:42.988Z,6.55
2022-11-16T06:52:11.291Z,6.57
2022-11-16T06:54:39.612Z,6.58
2022-11-16T06:57:07.865Z,6.60
2022-11-16T06:59:36.165Z,6.61
2022-11-16T07:02:04.594Z,6.64
2022-11-16T07:04:33.182Z,6.67
2022-11-16T07:07:01.685Z,6.70
2022-11-16T07:09:30.049Z,6.71
2022-11-16T07:11:58.602Z,6.73
2022-11-16T07:14:26.857Z,6.74
2022-11-16T07:16:59.781Z,6.75
2022-11-16T07:19:29.415Z,6.77
2022-11-16T07:21:57.855Z,6.80
2022-11-16T07:24:26.294Z,6.82
2022-11-16T07:26:54.587Z,6.85
2022-11-16T07:29:22.911Z,6.88
2022-11-16T07:31:51.373Z,6.91
2022-11-16T07:34:19.814Z,6.94
2022-11-16T07:36:48.117Z,6.97
2022-11-16T07:39:16.827Z,7.00
2022-11-16T07:41:46.384Z,7.03
2022-11-16T07:44:14.736Z,7.06
2022-11-16T07:46:47.850Z,7.08
2022-11-16T07:49:19.054Z,7.11
2022-11-16T07:51:47.464Z,7.11
2022-11-16T07:54:16.268Z,7.14
2022-11-16T07:56:44.650Z,7.16
2022-11-16T08:02:26.506Z,7.22
2022-11-16T08:04:55.260Z,7.21
2022-11-16T08:07:23.704Z,7.22
2022-11-16T08:09:52.337Z,7.23
2022-11-16T08:12:20.950Z,7.24
2022-11-16T08:14:49.492Z,7.24
2022-11-16T08:17:17.917Z,7.26
2022-11-16T08:19:46.301Z,7.26
2022-11-16T08:22:14.642Z,7.26
2022-11-16T08:24:43.006Z,7.28
2022-11-16T08:27:11.474Z,7.27
2022-11-16T08:29:40.004Z,7.27
2022-11-16T08:32:08.443Z,7.27
2022-11-16T08:34:36.786Z,7.25
2022-11-16T08:37:05.254Z,7.25
2022-11-16T08:39:33.617Z,7.25
2022-11-16T08:42:01.997Z,7.26
2022-11-16T08:44:30.386Z,7.27
2022-11-16T08:46:58.743Z,7.28
2022-11-16T08:49:29.095Z,7.29
2022-11-16T08:51:57.517Z,7.30
2022-11-16T08:54:29.464Z,7.33
2022-11-16T08:56:57.840Z,7.36
2022-11-16T08:59:26.127Z,7.36
2022-11-16T09:01:54.504Z,7.38
2022-11-16T09:04:23.412Z,7.38
2022-11-16T09:06:53.143Z,7.39
2022-11-16T09:09:21.518Z,7.40
2022-11-16T09:11:52.505Z,7.40
2022-11-16T09:14:22.184Z,7.40
2022-11-16T09:16:50.660Z,7.40
2022-11-16T09:19:20.473Z,7.40
2022-11-16T09:21:48.815Z,7.39
2022-11-16T09:24:17.400Z,7.38
2022-11-16T09:26:46.072Z,7.37
2022-11-16T09:29:15.543Z,7.36
2022-11-16T09:31:43.965Z,7.35
2022-11-16T09:34:12.395Z,7.34
2022-11-16T09:36:40.742Z,7.35
2022-11-16T09:42:31.353Z,7.33
2022-11-16T09:45:21.160Z,7.31
2022-11-16T09:47:56.327Z,7.30
2022-11-16T09:50:32.811Z,7.29
2022-11-16T09:53:32.144Z,7.28
2022-11-16T09:56:25.284Z,7.27
2022-11-16T09:59:38.754Z,7.25
2022-11-16T10:02:30.109Z,7.23
2022-11-16T10:05:27.929Z,7.20
2022-11-16T10:08:23.186Z,7.17
2022-11-16T10:11:21.818Z,7.15
2022-11-16T10:14:19.261Z,7.12
2022-11-16T10:17:15.763Z,7.10
2022-11-16T10:19:56.753Z,7.08
2022-11-16T10:22:51.224Z,7.06
2022-11-16T10:25:23.102Z,7.03
2022-11-16T10:28:22.155Z,7.00
2022-11-16T10:31:14.781Z,6.98
2022-11-16T10:33:48.011Z,6.97
2022-11-16T10:36:18.177Z,6.98
2022-11-16T10:38:46.943Z,6.98
2022-11-16T10:41:50.207Z,6.99
2022-11-16T10:44:38.911Z,7.01
2022-11-16T10:47:20.969Z,7.02
2022-11-16T10:50:00.696Z,7.03
2022-11-16T10:52:29.080Z,7.03
2022-11-16T10:54:57.452Z,7.02
2022-11-16T10:57:26.555Z,7.01
2022-11-16T10:59:55.718Z,7.02
2022-11-16T11:02:36.009Z,7.02
2022-11-16T11:05:20.121Z,7.02
2022-11-16T11:08:12.841Z,7.04
2022-11-16T11:10:42.456Z,7.04
2022-11-16T11:13:10.760Z,7.02
2022-11-16T11:15:42.419Z,7.01
2022-11-16T11:18:23.573Z,6.99
2022-11-16T11:20:58.087Z,6.98
2022-11-16T11:23:27.520Z,6.97
2022-11-16T11:25:59.347Z,6.96
2022-11-16T11:28:38.394Z,6.97
2022-11-16T11:31:26.239Z,6.99
2022-11-16T11:34:01.672Z,6.99
2022-11-16T11:36:42.055Z,6.99
2022-11-16T11:39:13.516Z,6.98
2022-11-16T11:41:45.005Z,6.99
2022-11-16T11:44:13.271Z,7.01
2022-11-16T11:49:53.375Z,7.02
2022-11-16T11:52:35.671Z,7.02
2022-11-16T11:55:07.596Z,7.02
2022-11-16T11:57:44.028Z,7.02
2022-11-16T12:00:14.962Z,7.01
2022-11-16T12:03:19.075Z,7.00
2022-11-16T12:06:10.040Z,7.00
2022-11-16T12:09:23.339Z,7.01
2022-11-16T12:12:34.371Z,6.99
2022-11-16T12:15:08.476Z,6.98
2022-11-16T12:18:07.018Z,6.97
2022-11-16T12:21:03.470Z,6.96
2022-11-16T12:24:23.368Z,6.91
2022-11-16T12:27:15.829Z,6.90
2022-11-16T12:30:24.411Z,6.87
2022-11-16T12:33:24.013Z,6.84
2022-11-16T12:36:08.324Z,6.82
2022-11-16T12:39:22.853Z,6.81
2022-11-16T12:42:09.118Z,6.80
2022-11-16T12:45:09.113Z,6.78
2022-11-16T12:47:50.265Z,6.77
2022-11-16T12:50:35.402Z,6.75
2022-11-16T12:53:38.331Z,6.74
2022-11-16T12:56:17.969Z,6.72
2022-11-16T12:59:12.888Z,6.71
2022-11-16T13:02:00.776Z,6.70
2022-11-16T13:04:36.819Z,6.68
2022-11-16T13:07:11.447Z,6.68
2022-11-16T13:09:47.952Z,6.69
2022-11-16T13:12:23.364Z,6.70
2022-11-16T13:14:55.024Z,6.71
2022-11-16T13:17:37.201Z,6.69
2022-11-16T13:20:35.079Z,6.70
2022-11-16T13:23:18.519Z,6.71
2022-11-16T13:26:00.096Z,6.71
2022-11-16T13:29:12.815Z,6.69
2022-11-16T13:32:00.999Z,6.67
2022-11-16T13:34:33.855Z,6.66
2022-11-16T13:37:22.073Z,6.66
2022-11-16T13:40:19.648Z,6.66
2022-11-16T13:43:17.606Z,6.65
2022-11-16T13:45:57.864Z,6.62
2022-11-16T13:48:36.216Z,6.61
2022-11-16T13:51:17.440Z,6.61
2022-11-16T13:56:51.835Z,6.62
2022-11-16T13:59:28.320Z,6.63
2022-11-16T14:02:22.260Z,6.63
2022-11-16T14:04:56.890Z,6.65
2022-11-16T14:07:46.316Z,6.65
2022-11-16T14:10:34.607Z,6.67
2022-11-16T14:13:25.927Z,6.69
2022-11-16T14:16:27.642Z,6.71
2022-11-16T14:19:00.334Z,6.74
2022-11-16T14:22:00.403Z,6.75
2022-11-16T14:24:50.301Z,6.78
2022-11-16T14:27:49.007Z,6.79
2022-11-16T14:30:34.765Z,6.79
2022-11-16T14:33:03.133Z,6.78
2022-11-16T14:35:37.396Z,6.78
2022-11-16T14:38:26.577Z,6.77
2022-11-16T14:40:59.778Z,6.77
2022-11-16T14:43:38.737Z,6.76
2022-11-16T14:46:22.753Z,6.76
2022-11-16T14:48:51.232Z,6.75
2022-11-16T14:51:26.735Z,6.74
2022-11-16T14:54:05.059Z,6.73
2022-11-16T14:56:33.408Z,6.73
2022-11-16T14:59:03.101Z,6.73
2022-11-16T15:01:39.699Z,6.72
2022-11-16T15:04:12.012Z,6.70
2022-11-16T15:06:48.593Z,6.70
2022-11-16T15:09:26.272Z,6.68
2022-11-16T15:12:31.578Z,6.68
2022-11-16T15:15:11.557Z,6.66
2022-11-16T15:17:43.611Z,6.64
2022-11-16T15:20:23.240Z,6.64
2022-11-16T15:22:54.823Z,6.63
2022-11-16T15:25:34.716Z,6.63
2022-11-16T15:28:13.262Z,6.63
2022-11-16T15:30:45.054Z,6.62
2022-11-16T15:33:23.523Z,6.63
2022-11-16T15:35:54.009Z,6.64
2022-11-16T15:38:31.717Z,6.65
2022-11-16T15:41:04.387Z,6.66
2022-11-16T15:44:12.667Z,6.65
2022-11-16T15:46:39.521Z,6.64
2022-11-16T15:49:37.324Z,6.63
2022-11-16T15:52:06.134Z,6.63
2022-11-16T15:54:54.455Z,6.62
2022-11-16T15:57:24.946Z,6.61
2022-11-16T15:59:57.072Z,6.60
2022-11-16T16:02:28.465Z,6.60
2022-11-16T16:04:56.866Z,6.60
2022-11-16T16:07:43.036Z,6.62
2022-11-16T16:10:32.211Z,6.61
2022-11-16T16:13:01.767Z,6.60
2022-11-16T16:15:36.660Z,6.58
2022-11-16T16:18:39.334Z,6.55
2022-11-16T16:21:09.806Z,6.53
2022-11-16T16:23:54.093Z,6.51
2022-11-16T16:26:23.803Z,6.49
2022-11-16T16:29:15.760Z,6.49
2022-11-16T16:31:44.189Z,6.46
2022-11-16T16:34:12.576Z,6.45
2022-11-16T16:36:41.389Z,6.44
2022-11-16T16:39:09.773Z,6.42
2022-11-16T16:41:39.742Z,6.40
2022-11-16T16:44:15.245Z,6.39
2022-11-16T16:54:27.933Z,6.35
2022-11-16T16:56:57.429Z,6.30
2022-11-16T16:59:25.800Z,6.29
2022-11-16T17:01:54.305Z,6.27
2022-11-16T17:04:22.852Z,6.25
2022-11-16T17:06:53.161Z,6.23
2022-11-16T17:09:21.635Z,6.22
2022-11-16T17:11:49.989Z,6.20
2022-11-16T17:14:19.831Z,6.19
2022-11-16T17:16:48.252Z,6.19
2022-11-16T17:19:16.739Z,6.18
2022-11-16T17:21:45.099Z,6.16
2022-11-16T17:24:13.596Z,6.16
2022-11-16T17:26:42.072Z,6.16
2022-11-16T17:29:10.371Z,6.14
2022-11-16T17:31:43.622Z,6.12
2022-11-16T17:34:13.708Z,6.10
2022-11-16T17:36:43.744Z,6.08
2022-11-16T17:39:12.165Z,6.06
2022-11-16T17:41:40.554Z,6.05
2022-11-16T17:44:09.309Z,6.03
2022-11-16T17:46:37.661Z,5.99
2022-11-16T17:49:06.220Z,5.95
2022-11-16T17:51:34.744Z,5.92
2022-11-16T17:54:03.274Z,5.88
2022-11-16T17:56:31.727Z,5.85
2022-11-16T17:59:00.137Z,5.81
2022-11-16T18:01:28.737Z,5.77
2022-11-16T18:03:57.280Z,5.75
2022-11-16T18:06:26.598Z,5.72
2022-11-16T18:08:55.179Z,5.70
2022-11-16T18:11:26.835Z,5.68
2022-11-16T18:13:58.576Z,5.68
2022-11-16T18:16:30.999Z,5.68
2022-11-16T18:19:07.003Z,5.68
2022-11-16T18:21:40.452Z,5.65
2022-11-16T18:24:09.699Z,5.64
2022-11-16T18:26:40.271Z,5.62
2022-11-16T18:29:12.796Z,5.61
2022-11-16T18:31:41.394Z,5.61
2022-11-16T18:34:14.263Z,5.62
2022-11-16T18:36:42.733Z,5.63
2022-11-16T18:39:11.110Z,5.64
2022-11-16T18:41:48.722Z,5.66
2022-11-16T18:44:22.176Z,5.66
2022-11-16T18:46:50.516Z,5.67
2022-11-16T18:49:19.074Z,5.68
2022-11-16T18:51:47.447Z,5.70
2022-11-16T18:54:15.813Z,5.71
2022-11-16T18:56:44.247Z,5.72
2022-11-16T18:59:12.654Z,5.73
2022-11-16T19:01:41.554Z,5.73
2022-11-16T19:04:10.931Z,5.73
2022-11-16T19:06:39.648Z,5.72
2022-11-16T19:09:09.722Z,5.73
2022-11-16T19:11:38.415Z,5.74
2022-11-16T19:14:09.815Z,5.75
2022-11-16T19:16:43.413Z,5.75
2022-11-16T19:19:15.713Z,5.76
2022-11-16T19:21:44.094Z,5.78
2022-11-16T19:24:12.415Z,5.78
2022-11-16T19:26:40.848Z,5.76
2022-11-16T19:29:09.306Z,5.76
2022-11-16T19:31:37.699Z,5.75
2022-11-16T19:34:10.510Z,5.75
2022-11-16T19:36:38.860Z,5.74
2022-11-16T19:39:07.471Z,5.71
2022-11-16T19:41:35.862Z,5.70
2022-11-16T19:44:04.233Z,5.70
2022-11-16T19:46:33.971Z,5.68
2022-11-16T19:49:02.825Z,5.66
2022-11-16T19:51:33.563Z,5.65
2022-11-16T19:54:03.322Z,5.63
2022-11-16T19:56:31.917Z,5.62
2022-11-16T19:59:00.277Z,5.62
2022-11-16T20:01:29.530Z,5.60
2022-11-16T20:04:00.947Z,5.59
2022-11-16T20:06:38.601Z,5.58
2022-11-16T20:09:11.932Z,5.58
2022-11-16T20:11:41.408Z,5.57
2022-11-16T20:14:12.296Z,5.57
2022-11-16T20:16:43.643Z,5.55
2022-11-16T20:19:12.096Z,5.53
2022-11-16T20:21:42.575Z,5.53
2022-11-16T20:24:14.792Z,5.53
2022-11-16T20:26:47.043Z,5.52
2022-11-16T20:29:18.347Z,5.51
2022-11-16T20:31:46.989Z,5.51
2022-11-16T20:34:17.531Z,5.50
2022-11-16T20:36:47.680Z,5.50
2022-11-16T20:39:19.016Z,5.49
2022-11-16T20:41:48.108Z,5.48
2022-11-16T20:44:21.028Z,5.46
2022-11-16T20:46:52.532Z,5.44
2022-11-16T20:49:21.028Z,5.42
2022-11-16T20:51:51.054Z,5.41
2022-11-16T20:54:19.471Z,5.40
2022-11-16T20:56:49.705Z,5.40
2022-11-16T20:59:18.969Z,5.38
2022-11-16T21:01:48.837Z,5.37
2022-11-16T21:04:17.429Z,5.36
2022-11-16T21:06:46.065Z,5.36
2022-11-16T21:09:15.882Z,5.36
2022-11-16T21:12:02.895Z,5.37
2022-11-16T21:14:31.229Z,5.37
2022-11-16T21:16:59.698Z,5.37
2022-11-16T21:19:28.103Z,5.36
2022-11-16T21:21:56.395Z,5.34
2022-11-16T21:24:24.864Z,5.32
2022-11-16T21:26:53.367Z,5.30
2022-11-16T21:29:25.904Z,5.28
2022-11-16T21:31:54.288Z,5.27
2022-11-16T21:34:24.450Z,5.26
2022-11-16T21:36:52.940Z,5.25
2022-11-16T21:39:21.547Z,5.25
2022-11-16T21:41:49.930Z,5.24
2022-11-16T21:44:18.353Z,5.26
2022-11-16T21:46:46.723Z,5.27
2022-11-16T21:49:15.066Z,5.26
2022-11-16T21:51:43.393Z,5.24
2022-11-16T21:54:11.767Z,5.23
2022-11-16T21:56:40.109Z,5.21
2022-11-16T21:59:08.434Z,5.20
2022-11-16T22:01:56.782Z,5.19
2022-11-16T22:04:43.715Z,5.19
2022-11-16T22:07:33.704Z,5.20
2022-11-16T22:10:13.191Z,5.20
2022-11-16T22:15:46.179Z,5.18
2022-11-16T22:18:15.557Z,5.16
2022-11-16T22:20:48.270Z,5.14
2022-11-16T22:23:22.500Z,5.13
2022-11-16T22:26:08.445Z,5.11
2022-11-16T22:28:38.263Z,5.09
2022-11-16T22:31:14.238Z,5.07
2022-11-16T22:33:43.190Z,5.06
2022-11-16T22:36:13.442Z,5.07
2022-11-16T22:38:42.133Z,5.07
2022-11-16T22:41:10.998Z,5.07
2022-11-16T22:43:40.028Z,5.07
2022-11-16T22:46:11.026Z,5.06
2022-11-16T22:48:41.278Z,5.06
2022-11-16T22:51:22.530Z,5.05
2022-11-16T22:54:00.812Z,5.04
2022-11-16T22:56:32.520Z,5.02
2022-11-16T22:59:02.663Z,5.01
2022-11-16T23:01:32.191Z,4.98
2022-11-16T23:04:00.901Z,4.94
2022-11-16T23:06:29.745Z,4.93
2022-11-16T23:08:58.490Z,4.92
2022-11-16T23:11:46.316Z,4.91
2022-11-16T23:14:35.826Z,4.91
2022-11-16T23:17:04.996Z,4.91
2022-11-16T23:19:53.052Z,4.91
2022-11-16T23:22:40.713Z,4.91
2022-11-16T23:25:30.658Z,4.90
2022-11-16T23:28:16.547Z,4.90
2022-11-16T23:30:45.137Z,4.89
2022-11-16T23:33:14.194Z,4.88
2022-11-16T23:35:42.896Z,4.88
2022-11-16T23:38:11.657Z,4.88
2022-11-16T23:40:40.836Z,4.88
2022-11-16T23:43:29.701Z,4.90
2022-11-16T23:45:58.384Z,4.91
2022-11-16T23:48:27.154Z,4.91
2022-11-16T23:50:55.870Z,4.91
2022-11-16T23:53:24.749Z,4.91
2022-11-16T23:55:53.444Z,4.92
2022-11-16T23:58:22.160Z,4.94
